Terminal Aerodrome Forecast
Issued by NWS Corpus Christi, TX

Home | Current Version | Previous Version | Text Only | Print | Product List | Glossary On
Versions: 1 2 3 4 5 6 7 8 9 10 11 12 13
000
FTUS44 KCRP 250524
TAFVCT
TAF
KVCT 250524Z 2506/2606 17005KT P6SM SKC
     FM250800 18003KT 5SM BR SCT008
      TEMPO 2509/2513 2SM BR
     FM251500 18008KT P6SM SCT250
     FM252300 10006KT P6SM BKN250=

USA.gov is the U.S. government's official web portal to all federal, state and local government web resources and services.